sensor_id;sensor_type;location;lat;lon;timestamp;temperature;humidity
12152;DHT22;6139;51.274;7.128;2024-01-30T00:01:00;9.30;1.00
12152;DHT22;6139;51.274;7.128;2024-01-30T00:02:02;9.40;1.00
12152;DHT22;6139;51.274;7.128;2024-01-30T00:03:04;9.40;1.00
12152;DHT22;6139;51.274;7.128;2024-01-30T00:04:06;9.40;1.00
12152;DHT22;6139;51.274;7.128;2024-01-30T00:05:07;9.40;1.00
12152;DHT22;6139;51.274;7.128;2024-01-30T00:06:11;9.40;1.00
12152;DHT22;6139;51.274;7.128;2024-01-30T00:07:13;9.40;1.00
12152;DHT22;6139;51.274;7.128;2024-01-30T00:08:15;9.40;1.00
12152;DHT22;6139;51.274;7.128;2024-01-30T00:09:16;9.40;1.00
12152;DHT22;6139;51.274;7.128;2024-01-30T00:10:18;9.40;1.00
12152;DHT22;6139;51.274;7.128;2024-01-30T00:11:19;9.40;1.00
12152;DHT22;6139;51.274;7.128;2024-01-30T00:12:21;9.40;1.00
12152;DHT22;6139;51.274;7.128;2024-01-30T00:13:22;9.40;1.00
12152;DHT22;6139;51.274;7.128;2024-01-30T00:14:24;9.40;1.00
12152;DHT22;6139;51.274;7.128;2024-01-30T00:15:25;9.40;1.00
12152;DHT22;6139;51.274;7.128;2024-01-30T00:16:27;9.40;1.00
12152;DHT22;6139;51.274;7.128;2024-01-30T00:17:29;9.40;99.90
12152;DHT22;6139;51.274;7.128;2024-01-30T00:18:30;9.40;99.90
12152;DHT22;6139;51.274;7.128;2024-01-30T00:19:32;9.40;1.00
12152;DHT22;6139;51.274;7.128;2024-01-30T00:20:33;9.40;1.00
12152;DHT22;6139;51.274;7.128;2024-01-30T00:21:35;9.40;1.00
12152;DHT22;6139;51.274;7.128;2024-01-30T00:22:37;9.40;1.00
12152;DHT22;6139;51.274;7.128;2024-01-30T00:23:39;9.40;1.00
12152;DHT22;6139;51.274;7.128;2024-01-30T00:24:40;9.30;1.00
12152;DHT22;6139;51.274;7.128;2024-01-30T00:25:42;9.30;1.00
12152;DHT22;6139;51.274;7.128;2024-01-30T00:26:43;9.30;1.00
12152;DHT22;6139;51.274;7.128;2024-01-30T00:27:45;9.40;1.00
12152;DHT22;6139;51.274;7.128;2024-01-30T00:28:46;9.40;1.00
12152;DHT22;6139;51.274;7.128;2024-01-30T00:29:48;9.40;1.00
12152;DHT22;6139;51.274;7.128;2024-01-30T00:30:49;9.40;1.00
12152;DHT22;6139;51.274;7.128;2024-01-30T00:31:51;9.40;1.00
12152;DHT22;6139;51.274;7.128;2024-01-30T00:32:53;9.40;99.90
12152;DHT22;6139;51.274;7.128;2024-01-30T00:33:55;9.40;99.90
12152;DHT22;6139;51.274;7.128;2024-01-30T00:34:56;9.40;1.00
12152;DHT22;6139;51.274;7.128;2024-01-30T00:35:58;9.40;1.00
12152;DHT22;6139;51.274;7.128;2024-01-30T00:36:59;9.40;99.90
12152;DHT22;6139;51.274;7.128;2024-01-30T00:38:03;9.40;1.00
12152;DHT22;6139;51.274;7.128;2024-01-30T00:39:04;9.40;1.00
12152;DHT22;6139;51.274;7.128;2024-01-30T00:40:10;9.30;99.90
12152;DHT22;6139;51.274;7.128;2024-01-30T00:41:17;9.30;99.90
12152;DHT22;6139;51.274;7.128;2024-01-30T00:42:20;9.30;1.00
12152;DHT22;6139;51.274;7.128;2024-01-30T00:43:21;9.30;1.00
12152;DHT22;6139;51.274;7.128;2024-01-30T00:44:23;9.30;1.00
12152;DHT22;6139;51.274;7.128;2024-01-30T00:45:24;9.30;99.90
12152;DHT22;6139;51.274;7.128;2024-01-30T00:46:26;9.30;1.00
12152;DHT22;6139;51.274;7.128;2024-01-30T00:47:27;9.30;1.00
12152;DHT22;6139;51.274;7.128;2024-01-30T00:48:29;9.30;1.00
12152;DHT22;6139;51.274;7.128;2024-01-30T00:49:30;9.20;1.00
12152;DHT22;6139;51.274;7.128;2024-01-30T00:50:32;9.20;1.00
12152;DHT22;6139;51.274;7.128;2024-01-30T00:51:33;9.30;1.00
12152;DHT22;6139;51.274;7.128;2024-01-30T00:52:35;9.30;1.00
12152;DHT22;6139;51.274;7.128;2024-01-30T00:53:38;9.30;1.00
12152;DHT22;6139;51.274;7.128;2024-01-30T00:54:39;9.30;1.00
12152;DHT22;6139;51.274;7.128;2024-01-30T00:55:40;9.30;1.00
12152;DHT22;6139;51.274;7.128;2024-01-30T00:56:42;9.30;1.00
12152;DHT22;6139;51.274;7.128;2024-01-30T00:57:43;9.20;1.00
12152;DHT22;6139;51.274;7.128;2024-01-30T00:58:45;9.20;1.00
12152;DHT22;6139;51.274;7.128;2024-01-30T00:59:46;9.20;1.00
12152;DHT22;6139;51.274;7.128;2024-01-30T01:00:48;9.20;1.00
12152;DHT22;6139;51.274;7.128;2024-01-30T01:01:49;9.20;1.00
12152;DHT22;6139;51.274;7.128;2024-01-30T01:02:52;9.20;1.00
12152;DHT22;6139;51.274;7.128;2024-01-30T01:03:53;9.20;1.00
12152;DHT22;6139;51.274;7.128;2024-01-30T01:04:55;9.30;1.00
12152;DHT22;6139;51.274;7.128;2024-01-30T01:05:56;9.30;1.00
12152;DHT22;6139;51.274;7.128;2024-01-30T01:06:58;9.30;1.00
12152;DHT22;6139;51.274;7.128;2024-01-30T01:07:59;9.20;1.00
12152;DHT22;6139;51.274;7.128;2024-01-30T01:09:02;9.20;1.00
12152;DHT22;6139;51.274;7.128;2024-01-30T01:10:05;9.20;1.00
12152;DHT22;6139;51.274;7.128;2024-01-30T01:11:06;9.20;1.00
12152;DHT22;6139;51.274;7.128;2024-01-30T01:12:08;9.20;1.00
12152;DHT22;6139;51.274;7.128;2024-01-30T01:13:09;9.20;1.00
12152;DHT22;6139;51.274;7.128;2024-01-30T01:14:11;9.20;1.00
12152;DHT22;6139;51.274;7.128;2024-01-30T01:15:12;9.20;1.00
12152;DHT22;6139;51.274;7.128;2024-01-30T01:16:14;9.20;1.00
12152;DHT22;6139;51.274;7.128;2024-01-30T01:17:15;9.20;1.00
12152;DHT22;6139;51.274;7.128;2024-01-30T01:18:17;9.10;1.00
12152;DHT22;6139;51.274;7.128;2024-01-30T01:19:18;9.10;1.00
12152;DHT22;6139;51.274;7.128;2024-01-30T01:20:20;9.10;99.90
12152;DHT22;6139;51.274;7.128;2024-01-30T01:21:21;9.10;1.00
12152;DHT22;6139;51.274;7.128;2024-01-30T01:22:23;9.10;1.00
12152;DHT22;6139;51.274;7.128;2024-01-30T01:23:24;9.20;1.00
12152;DHT22;6139;51.274;7.128;2024-01-30T01:24:28;9.10;1.00
12152;DHT22;6139;51.274;7.128;2024-01-30T01:25:29;9.10;1.00
12152;DHT22;6139;51.274;7.128;2024-01-30T01:26:31;9.10;1.00
12152;DHT22;6139;51.274;7.128;2024-01-30T01:27:32;9.10;1.00
12152;DHT22;6139;51.274;7.128;2024-01-30T01:28:35;9.10;1.00
12152;DHT22;6139;51.274;7.128;2024-01-30T01:29:36;9.10;1.00
12152;DHT22;6139;51.274;7.128;2024-01-30T01:30:38;9.10;1.00
12152;DHT22;6139;51.274;7.128;2024-01-30T01:31:39;9.00;1.00
12152;DHT22;6139;51.274;7.128;2024-01-30T01:32:44;9.00;51.00
12152;DHT22;6139;51.274;7.128;2024-01-30T01:33:50;9.00;1.00
12152;DHT22;6139;51.274;7.128;2024-01-30T01:34:53;9.00;99.90
12152;DHT22;6139;51.274;7.128;2024-01-30T01:35:53;9.00;1.00
12152;DHT22;6139;51.274;7.128;2024-01-30T01:36:56;9.00;78.20
12152;DHT22;6139;51.274;7.128;2024-01-30T01:37:57;9.00;99.90
12152;DHT22;6139;51.274;7.128;2024-01-30T01:39:00;9.00;1.00
12152;DHT22;6139;51.274;7.128;2024-01-30T01:40:03;9.10;34.40
12152;DHT22;6139;51.274;7.128;2024-01-30T01:41:07;9.10;99.90
12152;DHT22;6139;51.274;7.128;2024-01-30T01:42:08;9.10;1.00
12152;DHT22;6139;51.274;7.128;2024-01-30T01:43:10;9.10;1.00
12152;DHT22;6139;51.274;7.128;2024-01-30T01:44:10;9.10;1.00
12152;DHT22;6139;51.274;7.128;2024-01-30T01:45:13;9.10;1.00
12152;DHT22;6139;51.274;7.128;2024-01-30T01:46:14;9.10;1.00
12152;DHT22;6139;51.274;7.128;2024-01-30T01:47:16;9.10;1.00
12152;DHT22;6139;51.274;7.128;2024-01-30T01:48:17;9.00;1.00
12152;DHT22;6139;51.274;7.128;2024-01-30T01:49:20;9.00;1.00
12152;DHT22;6139;51.274;7.128;2024-01-30T01:50:21;9.00;97.80
12152;DHT22;6139;51.274;7.128;2024-01-30T01:51:27;9.00;3.60
12152;DHT22;6139;51.274;7.128;2024-01-30T01:52:28;9.00;9.10
12152;DHT22;6139;51.274;7.128;2024-01-30T01:53:30;9.00;99.90
12152;DHT22;6139;51.274;7.128;2024-01-30T01:54:32;9.00;99.90
12152;DHT22;6139;51.274;7.128;2024-01-30T01:55:36;9.00;99.90
12152;DHT22;6139;51.274;7.128;2024-01-30T01:56:38;9.00;99.90
12152;DHT22;6139;51.274;7.128;2024-01-30T01:57:41;9.00;99.90
12152;DHT22;6139;51.274;7.128;2024-01-30T01:58:43;9.00;99.90
12152;DHT22;6139;51.274;7.128;2024-01-30T01:59:46;9.00;79.60
12152;DHT22;6139;51.274;7.128;2024-01-30T02:00:47;9.10;99.90
12152;DHT22;6139;51.274;7.128;2024-01-30T02:01:49;9.10;99.90
12152;DHT22;6139;51.274;7.128;2024-01-30T02:02:52;9.10;99.90
12152;DHT22;6139;51.274;7.128;2024-01-30T02:03:55;9.10;69.50
12152;DHT22;6139;51.274;7.128;2024-01-30T02:04:57;9.10;52.00
12152;DHT22;6139;51.274;7.128;2024-01-30T02:05:59;9.10;18.50
12152;DHT22;6139;51.274;7.128;2024-01-30T02:07:00;9.10;99.90
12152;DHT22;6139;51.274;7.128;2024-01-30T02:08:02;9.10;99.90
12152;DHT22;6139;51.274;7.128;2024-01-30T02:09:04;9.20;99.90
12152;DHT22;6139;51.274;7.128;2024-01-30T02:10:07;9.20;99.90
12152;DHT22;6139;51.274;7.128;2024-01-30T02:11:11;9.20;1.00
12152;DHT22;6139;51.274;7.128;2024-01-30T02:12:13;9.10;55.30
12152;DHT22;6139;51.274;7.128;2024-01-30T02:13:14;9.20;99.90
12152;DHT22;6139;51.274;7.128;2024-01-30T02:14:16;9.10;1.00
12152;DHT22;6139;51.274;7.128;2024-01-30T02:15:18;9.20;22.10
12152;DHT22;6139;51.274;7.128;2024-01-30T02:16:19;9.20;1.00
12152;DHT22;6139;51.274;7.128;2024-01-30T02:17:21;9.10;1.00
12152;DHT22;6139;51.274;7.128;2024-01-30T02:18:23;9.10;1.00
12152;DHT22;6139;51.274;7.128;2024-01-30T02:19:45;9.10;29.60
12152;DHT22;6139;51.274;7.128;2024-01-30T02:20:46;9.10;1.00
12152;DHT22;6139;51.274;7.128;2024-01-30T02:21:50;9.10;39.10
12152;DHT22;6139;51.274;7.128;2024-01-30T02:22:52;9.00;25.80
12152;DHT22;6139;51.274;7.128;2024-01-30T02:23:57;9.00;57.80
12152;DHT22;6139;51.274;7.128;2024-01-30T02:24:59;9.10;99.90
12152;DHT22;6139;51.274;7.128;2024-01-30T02:26:00;9.10;36.10
12152;DHT22;6139;51.274;7.128;2024-01-30T02:27:02;9.10;99.90
12152;DHT22;6139;51.274;7.128;2024-01-30T02:28:04;9.00;99.90
12152;DHT22;6139;51.274;7.128;2024-01-30T02:29:06;9.00;83.30
12152;DHT22;6139;51.274;7.128;2024-01-30T02:30:07;9.10;99.90
12152;DHT22;6139;51.274;7.128;2024-01-30T02:31:10;9.10;1.00
12152;DHT22;6139;51.274;7.128;2024-01-30T02:32:11;9.00;18.50
12152;DHT22;6139;51.274;7.128;2024-01-30T02:33:13;9.00;99.90
12152;DHT22;6139;51.274;7.128;2024-01-30T02:34:14;9.00;99.90
12152;DHT22;6139;51.274;7.128;2024-01-30T02:35:16;9.00;99.90
12152;DHT22;6139;51.274;7.128;2024-01-30T02:36:17;9.00;99.90
12152;DHT22;6139;51.274;7.128;2024-01-30T02:37:20;9.00;99.90
12152;DHT22;6139;51.274;7.128;2024-01-30T02:38:21;9.00;99.90
12152;DHT22;6139;51.274;7.128;2024-01-30T02:39:24;9.00;99.90
12152;DHT22;6139;51.274;7.128;2024-01-30T02:40:25;9.00;99.90
12152;DHT22;6139;51.274;7.128;2024-01-30T02:41:27;9.00;99.90
12152;DHT22;6139;51.274;7.128;2024-01-30T02:42:28;9.00;46.20
12152;DHT22;6139;51.274;7.128;2024-01-30T02:43:29;9.00;99.90
12152;DHT22;6139;51.274;7.128;2024-01-30T02:44:30;9.00;99.90
12152;DHT22;6139;51.274;7.128;2024-01-30T02:45:32;9.00;99.90
12152;DHT22;6139;51.274;7.128;2024-01-30T02:46:33;9.00;99.90
12152;DHT22;6139;51.274;7.128;2024-01-30T02:47:36;9.00;99.90
12152;DHT22;6139;51.274;7.128;2024-01-30T02:48:37;9.00;99.90
12152;DHT22;6139;51.274;7.128;2024-01-30T02:49:39;9.00;99.90
12152;DHT22;6139;51.274;7.128;2024-01-30T02:50:40;9.00;99.90
12152;DHT22;6139;51.274;7.128;2024-01-30T02:51:42;9.00;99.90
12152;DHT22;6139;51.274;7.128;2024-01-30T02:52:45;9.00;99.90
12152;DHT22;6139;51.274;7.128;2024-01-30T02:53:46;9.00;99.90
12152;DHT22;6139;51.274;7.128;2024-01-30T02:54:48;9.00;99.90
12152;DHT22;6139;51.274;7.128;2024-01-30T02:55:49;9.00;99.90
12152;DHT22;6139;51.274;7.128;2024-01-30T02:56:51;9.10;99.90
12152;DHT22;6139;51.274;7.128;2024-01-30T02:57:52;9.10;96.20
12152;DHT22;6139;51.274;7.128;2024-01-30T02:58:53;9.00;69.70
12152;DHT22;6139;51.274;7.128;2024-01-30T02:59:54;9.00;44.30
12152;DHT22;6139;51.274;7.128;2024-01-30T03:00:56;9.00;99.90
12152;DHT22;6139;51.274;7.128;2024-01-30T03:01:57;9.00;99.90
12152;DHT22;6139;51.274;7.128;2024-01-30T03:02:59;9.00;99.90
12152;DHT22;6139;51.274;7.128;2024-01-30T03:04:01;9.00;99.90
12152;DHT22;6139;51.274;7.128;2024-01-30T03:05:03;9.00;99.90
12152;DHT22;6139;51.274;7.128;2024-01-30T03:06:05;9.00;99.90
12152;DHT22;6139;51.274;7.128;2024-01-30T03:07:07;8.90;99.90
12152;DHT22;6139;51.274;7.128;2024-01-30T03:08:10;8.90;99.90
12152;DHT22;6139;51.274;7.128;2024-01-30T03:09:12;8.90;1.00
12152;DHT22;6139;51.274;7.128;2024-01-30T03:10:13;8.90;99.90
12152;DHT22;6139;51.274;7.128;2024-01-30T03:11:15;8.90;1.00
12152;DHT22;6139;51.274;7.128;2024-01-30T03:12:16;8.90;99.90
12152;DHT22;6139;51.274;7.128;2024-01-30T03:13:18;8.90;1.00
12152;DHT22;6139;51.274;7.128;2024-01-30T03:14:19;8.90;1.00
12152;DHT22;6139;51.274;7.128;2024-01-30T03:15:21;8.90;99.90
12152;DHT22;6139;51.274;7.128;2024-01-30T03:16:22;8.90;1.00
12152;DHT22;6139;51.274;7.128;2024-01-30T03:17:23;9.00;99.90
12152;DHT22;6139;51.274;7.128;2024-01-30T03:18:25;9.00;1.00
12152;DHT22;6139;51.274;7.128;2024-01-30T03:19:26;9.00;99.90
12152;DHT22;6139;51.274;7.128;2024-01-30T03:20:28;9.00;99.90
12152;DHT22;6139;51.274;7.128;2024-01-30T03:21:29;9.00;1.00
12152;DHT22;6139;51.274;7.128;2024-01-30T03:22:31;9.00;99.90
12152;DHT22;6139;51.274;7.128;2024-01-30T03:23:33;9.00;99.90
12152;DHT22;6139;51.274;7.128;2024-01-30T03:24:36;8.90;1.00
12152;DHT22;6139;51.274;7.128;2024-01-30T03:25:37;9.00;1.00
12152;DHT22;6139;51.274;7.128;2024-01-30T03:26:38;9.00;1.00
12152;DHT22;6139;51.274;7.128;2024-01-30T03:27:39;9.00;99.90
12152;DHT22;6139;51.274;7.128;2024-01-30T03:28:41;9.00;99.90
12152;DHT22;6139;51.274;7.128;2024-01-30T03:29:42;9.00;1.00
12152;DHT22;6139;51.274;7.128;2024-01-30T03:30:44;9.00;99.90
12152;DHT22;6139;51.274;7.128;2024-01-30T03:31:45;9.00;99.90
12152;DHT22;6139;51.274;7.128;2024-01-30T03:32:47;8.90;99.90
12152;DHT22;6139;51.274;7.128;2024-01-30T03:33:48;8.90;1.00
12152;DHT22;6139;51.274;7.128;2024-01-30T03:34:50;9.00;1.00
12152;DHT22;6139;51.274;7.128;2024-01-30T03:35:51;9.00;1.00
12152;DHT22;6139;51.274;7.128;2024-01-30T03:36:53;9.00;99.90
12152;DHT22;6139;51.274;7.128;2024-01-30T03:37:54;9.10;99.90
12152;DHT22;6139;51.274;7.128;2024-01-30T03:38:58;9.10;99.90
12152;DHT22;6139;51.274;7.128;2024-01-30T03:39:59;9.20;99.90
12152;DHT22;6139;51.274;7.128;2024-01-30T03:41:01;9.20;99.90
12152;DHT22;6139;51.274;7.128;2024-01-30T03:42:02;9.20;1.00
12152;DHT22;6139;51.274;7.128;2024-01-30T03:43:04;9.20;1.00
12152;DHT22;6139;51.274;7.128;2024-01-30T03:44:06;9.20;1.00
12152;DHT22;6139;51.274;7.128;2024-01-30T03:45:09;9.20;1.00
12152;DHT22;6139;51.274;7.128;2024-01-30T03:46:11;9.20;1.00
12152;DHT22;6139;51.274;7.128;2024-01-30T03:47:13;9.30;1.00
12152;DHT22;6139;51.274;7.128;2024-01-30T03:48:14;9.30;1.00
12152;DHT22;6139;51.274;7.128;2024-01-30T03:49:16;9.30;1.00
12152;DHT22;6139;51.274;7.128;2024-01-30T03:50:17;9.30;1.00
12152;DHT22;6139;51.274;7.128;2024-01-30T03:51:19;9.30;1.00
12152;DHT22;6139;51.274;7.128;2024-01-30T03:52:20;9.30;1.00
12152;DHT22;6139;51.274;7.128;2024-01-30T03:53:22;9.30;1.00
12152;DHT22;6139;51.274;7.128;2024-01-30T03:54:25;9.30;1.00
12152;DHT22;6139;51.274;7.128;2024-01-30T03:55:26;9.30;1.00
12152;DHT22;6139;51.274;7.128;2024-01-30T03:56:27;9.30;1.00
12152;DHT22;6139;51.274;7.128;2024-01-30T03:57:29;9.30;1.00
12152;DHT22;6139;51.274;7.128;2024-01-30T03:58:30;9.30;1.00
12152;DHT22;6139;51.274;7.128;2024-01-30T03:59:32;9.30;1.00
12152;DHT22;6139;51.274;7.128;2024-01-30T04:00:33;9.40;1.00
12152;DHT22;6139;51.274;7.128;2024-01-30T04:01:35;9.30;1.00
12152;DHT22;6139;51.274;7.128;2024-01-30T04:02:36;9.30;1.00
12152;DHT22;6139;51.274;7.128;2024-01-30T04:03:38;9.30;1.00
12152;DHT22;6139;51.274;7.128;2024-01-30T04:04:39;9.30;1.00
12152;DHT22;6139;51.274;7.128;2024-01-30T04:05:40;9.30;1.00
12152;DHT22;6139;51.274;7.128;2024-01-30T04:06:42;9.30;1.00
12152;DHT22;6139;51.274;7.128;2024-01-30T04:07:43;9.30;1.00
12152;DHT22;6139;51.274;7.128;2024-01-30T04:08:45;9.30;1.00
12152;DHT22;6139;51.274;7.128;2024-01-30T04:09:48;9.30;1.00
12152;DHT22;6139;51.274;7.128;2024-01-30T04:10:50;9.30;1.00
12152;DHT22;6139;51.274;7.128;2024-01-30T04:11:50;9.30;1.00
12152;DHT22;6139;51.274;7.128;2024-01-30T04:12:52;9.30;1.00
12152;DHT22;6139;51.274;7.128;2024-01-30T04:13:54;9.30;1.00
12152;DHT22;6139;51.274;7.128;2024-01-30T04:14:56;9.40;1.00
12152;DHT22;6139;51.274;7.128;2024-01-30T04:15:59;9.40;1.00
12152;DHT22;6139;51.274;7.128;2024-01-30T04:17:00;9.40;1.00
12152;DHT22;6139;51.274;7.128;2024-01-30T04:18:02;9.40;1.00
12152;DHT22;6139;51.274;7.128;2024-01-30T04:19:03;9.40;1.00
12152;DHT22;6139;51.274;7.128;2024-01-30T04:20:06;9.40;99.90
12152;DHT22;6139;51.274;7.128;2024-01-30T04:21:07;9.40;99.90
12152;DHT22;6139;51.274;7.128;2024-01-30T04:22:08;9.40;99.90
12152;DHT22;6139;51.274;7.128;2024-01-30T04:23:10;9.40;99.90
12152;DHT22;6139;51.274;7.128;2024-01-30T04:24:11;9.40;99.90
12152;DHT22;6139;51.274;7.128;2024-01-30T04:25:14;9.40;99.90
12152;DHT22;6139;51.274;7.128;2024-01-30T04:26:15;9.40;99.90
12152;DHT22;6139;51.274;7.128;2024-01-30T04:27:17;9.40;99.90
12152;DHT22;6139;51.274;7.128;2024-01-30T04:28:18;9.50;99.90
12152;DHT22;6139;51.274;7.128;2024-01-30T04:29:20;9.50;99.90
12152;DHT22;6139;51.274;7.128;2024-01-30T04:30:23;9.50;99.90
12152;DHT22;6139;51.274;7.128;2024-01-30T04:31:25;9.50;19.70
12152;DHT22;6139;51.274;7.128;2024-01-30T04:32:26;9.50;99.90
12152;DHT22;6139;51.274;7.128;2024-01-30T04:33:27;9.50;18.70
12152;DHT22;6139;51.274;7.128;2024-01-30T04:34:29;9.40;81.90
12152;DHT22;6139;51.274;7.128;2024-01-30T04:35:30;9.40;64.20
12152;DHT22;6139;51.274;7.128;2024-01-30T04:36:32;9.40;99.90
12152;DHT22;6139;51.274;7.128;2024-01-30T04:37:33;9.40;99.90
12152;DHT22;6139;51.274;7.128;2024-01-30T04:38:34;9.40;99.90
12152;DHT22;6139;51.274;7.128;2024-01-30T04:39:36;9.40;99.90
12152;DHT22;6139;51.274;7.128;2024-01-30T04:40:39;9.40;99.90
12152;DHT22;6139;51.274;7.128;2024-01-30T04:41:41;9.40;99.90
12152;DHT22;6139;51.274;7.128;2024-01-30T04:42:42;9.40;99.90
12152;DHT22;6139;51.274;7.128;2024-01-30T04:43:44;9.40;99.90
12152;DHT22;6139;51.274;7.128;2024-01-30T04:44:45;9.40;99.90
12152;DHT22;6139;51.274;7.128;2024-01-30T04:45:47;9.40;99.90
12152;DHT22;6139;51.274;7.128;2024-01-30T04:46:48;9.40;99.90
12152;DHT22;6139;51.274;7.128;2024-01-30T04:47:50;9.40;99.90
12152;DHT22;6139;51.274;7.128;2024-01-30T04:48:51;9.40;99.90
12152;DHT22;6139;51.274;7.128;2024-01-30T04:49:53;9.40;99.90
12152;DHT22;6139;51.274;7.128;2024-01-30T04:50:54;9.30;99.90
12152;DHT22;6139;51.274;7.128;2024-01-30T04:51:56;9.30;99.90
12152;DHT22;6139;51.274;7.128;2024-01-30T04:52:57;9.40;99.90
12152;DHT22;6139;51.274;7.128;2024-01-30T04:53:59;9.30;99.90
12152;DHT22;6139;51.274;7.128;2024-01-30T04:55:00;9.30;99.90
12152;DHT22;6139;51.274;7.128;2024-01-30T04:56:05;9.30;99.90
12152;DHT22;6139;51.274;7.128;2024-01-30T04:57:06;9.30;99.90
12152;DHT22;6139;51.274;7.128;2024-01-30T04:58:10;9.20;99.90
12152;DHT22;6139;51.274;7.128;2024-01-30T04:59:11;9.20;1.00
12152;DHT22;6139;51.274;7.128;2024-01-30T05:00:14;9.30;1.00
12152;DHT22;6139;51.274;7.128;2024-01-30T05:01:15;9.30;1.00
12152;DHT22;6139;51.274;7.128;2024-01-30T05:02:16;9.30;1.00
12152;DHT22;6139;51.274;7.128;2024-01-30T05:03:19;9.30;1.00
12152;DHT22;6139;51.274;7.128;2024-01-30T05:04:20;9.30;99.90
12152;DHT22;6139;51.274;7.128;2024-01-30T05:05:22;9.30;99.90
12152;DHT22;6139;51.274;7.128;2024-01-30T05:06:27;9.20;1.00
12152;DHT22;6139;51.274;7.128;2024-01-30T05:07:28;9.30;1.00
12152;DHT22;6139;51.274;7.128;2024-01-30T05:08:29;9.30;1.00
12152;DHT22;6139;51.274;7.128;2024-01-30T05:09:30;9.30;99.90
12152;DHT22;6139;51.274;7.128;2024-01-30T05:10:32;9.30;99.90
12152;DHT22;6139;51.274;7.128;2024-01-30T05:11:38;9.30;1.00
12152;DHT22;6139;51.274;7.128;2024-01-30T05:12:40;9.30;1.00
12152;DHT22;6139;51.274;7.128;2024-01-30T05:13:42;9.30;1.00
12152;DHT22;6139;51.274;7.128;2024-01-30T05:14:42;9.30;1.00
12152;DHT22;6139;51.274;7.128;2024-01-30T05:15:43;9.30;1.00
12152;DHT22;6139;51.274;7.128;2024-01-30T05:16:45;9.20;1.00
12152;DHT22;6139;51.274;7.128;2024-01-30T05:17:47;9.30;1.00
12152;DHT22;6139;51.274;7.128;2024-01-30T05:18:48;9.30;1.00
12152;DHT22;6139;51.274;7.128;2024-01-30T05:19:50;9.30;99.90
12152;DHT22;6139;51.274;7.128;2024-01-30T05:20:51;9.30;1.00
12152;DHT22;6139;51.274;7.128;2024-01-30T05:21:53;9.30;1.00
12152;DHT22;6139;51.274;7.128;2024-01-30T05:22:54;9.30;1.00
12152;DHT22;6139;51.274;7.128;2024-01-30T05:23:56;9.30;1.00
12152;DHT22;6139;51.274;7.128;2024-01-30T05:24:57;9.30;1.00
12152;DHT22;6139;51.274;7.128;2024-01-30T05:25:59;9.20;1.00
12152;DHT22;6139;51.274;7.128;2024-01-30T05:27:03;9.20;1.00
12152;DHT22;6139;51.274;7.128;2024-01-30T05:28:05;9.20;1.00
12152;DHT22;6139;51.274;7.128;2024-01-30T05:29:06;9.20;1.00
12152;DHT22;6139;51.274;7.128;2024-01-30T05:30:09;9.20;1.00
12152;DHT22;6139;51.274;7.128;2024-01-30T05:31:10;9.20;1.00
12152;DHT22;6139;51.274;7.128;2024-01-30T05:32:12;9.20;1.00
12152;DHT22;6139;51.274;7.128;2024-01-30T05:33:13;9.20;1.00
12152;DHT22;6139;51.274;7.128;2024-01-30T05:34:15;9.20;1.00
12152;DHT22;6139;51.274;7.128;2024-01-30T05:35:16;9.30;1.00
12152;DHT22;6139;51.274;7.128;2024-01-30T05:36:18;9.20;1.00
12152;DHT22;6139;51.274;7.128;2024-01-30T05:37:19;9.20;1.00
12152;DHT22;6139;51.274;7.128;2024-01-30T05:38:21;9.30;1.00
12152;DHT22;6139;51.274;7.128;2024-01-30T05:39:22;9.30;1.00
12152;DHT22;6139;51.274;7.128;2024-01-30T05:40:24;9.30;1.00
12152;DHT22;6139;51.274;7.128;2024-01-30T05:41:25;9.20;1.00
12152;DHT22;6139;51.274;7.128;2024-01-30T05:42:29;9.20;1.00
12152;DHT22;6139;51.274;7.128;2024-01-30T05:43:30;9.30;1.00
12152;DHT22;6139;51.274;7.128;2024-01-30T05:44:32;9.20;1.00
12152;DHT22;6139;51.274;7.128;2024-01-30T05:45:32;9.20;1.00
12152;DHT22;6139;51.274;7.128;2024-01-30T05:46:35;9.20;1.00
12152;DHT22;6139;51.274;7.128;2024-01-30T05:47:36;9.20;1.00
12152;DHT22;6139;51.274;7.128;2024-01-30T05:48:38;9.20;1.00
12152;DHT22;6139;51.274;7.128;2024-01-30T05:49:39;9.20;1.00
12152;DHT22;6139;51.274;7.128;2024-01-30T05:50:40;9.20;1.00
12152;DHT22;6139;51.274;7.128;2024-01-30T05:51:42;9.20;1.00
12152;DHT22;6139;51.274;7.128;2024-01-30T05:52:43;9.20;1.00
12152;DHT22;6139;51.274;7.128;2024-01-30T05:53:45;9.30;1.00
12152;DHT22;6139;51.274;7.128;2024-01-30T05:54:46;9.30;1.00
12152;DHT22;6139;51.274;7.128;2024-01-30T05:55:48;9.30;1.00
12152;DHT22;6139;51.274;7.128;2024-01-30T05:56:49;9.30;1.00
12152;DHT22;6139;51.274;7.128;2024-01-30T05:57:51;9.30;1.00
12152;DHT22;6139;51.274;7.128;2024-01-30T05:58:54;9.30;1.00
12152;DHT22;6139;51.274;7.128;2024-01-30T05:59:55;9.30;1.00
12152;DHT22;6139;51.274;7.128;2024-01-30T06:00:57;9.30;1.00
12152;DHT22;6139;51.274;7.128;2024-01-30T06:01:58;9.30;1.00
12152;DHT22;6139;51.274;7.128;2024-01-30T06:03:00;9.30;1.00
12152;DHT22;6139;51.274;7.128;2024-01-30T06:04:01;9.30;1.00
12152;DHT22;6139;51.274;7.128;2024-01-30T06:05:03;9.30;1.00
12152;DHT22;6139;51.274;7.128;2024-01-30T06:06:05;9.30;1.00
12152;DHT22;6139;51.274;7.128;2024-01-30T06:07:07;9.30;1.00
12152;DHT22;6139;51.274;7.128;2024-01-30T06:08:08;9.30;1.00
12152;DHT22;6139;51.274;7.128;2024-01-30T06:09:10;9.30;1.00
12152;DHT22;6139;51.274;7.128;2024-01-30T06:10:13;9.30;1.00
12152;DHT22;6139;51.274;7.128;2024-01-30T06:11:15;9.30;1.00
12152;DHT22;6139;51.274;7.128;2024-01-30T06:12:16;9.30;1.00
12152;DHT22;6139;51.274;7.128;2024-01-30T06:13:20;9.30;1.00
12152;DHT22;6139;51.274;7.128;2024-01-30T06:14:21;9.30;1.00
12152;DHT22;6139;51.274;7.128;2024-01-30T06:15:23;9.30;1.00
12152;DHT22;6139;51.274;7.128;2024-01-30T06:16:24;9.30;1.00
12152;DHT22;6139;51.274;7.128;2024-01-30T06:17:30;9.30;1.00
12152;DHT22;6139;51.274;7.128;2024-01-30T06:18:31;9.30;1.00
12152;DHT22;6139;51.274;7.128;2024-01-30T06:19:32;9.30;1.00
12152;DHT22;6139;51.274;7.128;2024-01-30T06:20:33;9.30;1.00
12152;DHT22;6139;51.274;7.128;2024-01-30T06:21:34;9.20;1.00
12152;DHT22;6139;51.274;7.128;2024-01-30T06:22:38;9.20;1.00
12152;DHT22;6139;51.274;7.128;2024-01-30T06:23:39;9.20;1.00
12152;DHT22;6139;51.274;7.128;2024-01-30T06:24:41;9.20;1.00
12152;DHT22;6139;51.274;7.128;2024-01-30T06:25:42;9.20;1.00
12152;DHT22;6139;51.274;7.128;2024-01-30T06:26:44;9.20;1.00
12152;DHT22;6139;51.274;7.128;2024-01-30T06:27:45;9.20;1.00
12152;DHT22;6139;51.274;7.128;2024-01-30T06:28:49;9.20;1.00
12152;DHT22;6139;51.274;7.128;2024-01-30T06:29:50;9.30;1.00
12152;DHT22;6139;51.274;7.128;2024-01-30T06:30:50;9.30;1.00
12152;DHT22;6139;51.274;7.128;2024-01-30T06:31:52;9.30;1.00
12152;DHT22;6139;51.274;7.128;2024-01-30T06:32:53;9.30;1.00
12152;DHT22;6139;51.274;7.128;2024-01-30T06:33:55;9.30;1.00
12152;DHT22;6139;51.274;7.128;2024-01-30T06:34:56;9.20;1.00
12152;DHT22;6139;51.274;7.128;2024-01-30T06:35:57;9.20;1.00
12152;DHT22;6139;51.274;7.128;2024-01-30T06:36:59;9.20;1.00
12152;DHT22;6139;51.274;7.128;2024-01-30T06:38:00;9.10;1.00
12152;DHT22;6139;51.274;7.128;2024-01-30T06:39:02;9.10;1.00
12152;DHT22;6139;51.274;7.128;2024-01-30T06:40:04;9.10;24.20
12152;DHT22;6139;51.274;7.128;2024-01-30T06:41:06;9.10;92.10
12152;DHT22;6139;51.274;7.128;2024-01-30T06:42:07;9.10;99.90
12152;DHT22;6139;51.274;7.128;2024-01-30T06:43:09;9.00;99.90
12152;DHT22;6139;51.274;7.128;2024-01-30T06:44:12;9.00;99.90
12152;DHT22;6139;51.274;7.128;2024-01-30T06:45:14;9.00;99.90
12152;DHT22;6139;51.274;7.128;2024-01-30T06:46:16;9.00;99.90
12152;DHT22;6139;51.274;7.128;2024-01-30T06:47:18;9.00;99.90
12152;DHT22;6139;51.274;7.128;2024-01-30T06:48:19;9.00;99.90